sensor_id;sensor_type;location;lat;lon;timestamp;P1;durP1;ratioP1;P2;durP2;ratioP2
4889;SDS011;2459;42.268;23.112;2023-05-07T00:00:19;11.60;;;6.13;;
4889;SDS011;2459;42.268;23.112;2023-05-07T00:02:46;7.80;;;6.03;;
4889;SDS011;2459;42.268;23.112;2023-05-07T00:05:13;15.60;;;6.23;;
4889;SDS011;2459;42.268;23.112;2023-05-07T00:07:39;10.23;;;6.70;;
4889;SDS011;2459;42.268;23.112;2023-05-07T00:10:06;14.07;;;7.27;;
4889;SDS011;2459;42.268;23.112;2023-05-07T00:12:33;8.00;;;5.60;;
4889;SDS011;2459;42.268;23.112;2023-05-07T00:15:01;10.83;;;5.60;;
4889;SDS011;2459;42.268;23.112;2023-05-07T00:17:28;8.73;;;5.73;;
4889;SDS011;2459;42.268;23.112;2023-05-07T00:19:54;16.70;;;6.43;;
4889;SDS011;2459;42.268;23.112;2023-05-07T00:22:21;7.90;;;6.00;;
4889;SDS011;2459;42.268;23.112;2023-05-07T00:24:47;14.57;;;6.03;;
4889;SDS011;2459;42.268;23.112;2023-05-07T00:27:14;13.13;;;6.20;;
4889;SDS011;2459;42.268;23.112;2023-05-07T00:29:40;8.63;;;5.50;;
4889;SDS011;2459;42.268;23.112;2023-05-07T00:32:08;12.73;;;6.33;;
4889;SDS011;2459;42.268;23.112;2023-05-07T00:34:35;11.63;;;6.23;;
4889;SDS011;2459;42.268;23.112;2023-05-07T00:37:01;10.33;;;6.73;;
4889;SDS011;2459;42.268;23.112;2023-05-07T00:39:28;7.23;;;5.50;;
4889;SDS011;2459;42.268;23.112;2023-05-07T00:41:54;9.87;;;6.30;;
4889;SDS011;2459;42.268;23.112;2023-05-07T00:44:22;12.10;;;6.47;;
4889;SDS011;2459;42.268;23.112;2023-05-07T00:46:48;7.93;;;5.40;;
4889;SDS011;2459;42.268;23.112;2023-05-07T00:49:16;13.23;;;6.63;;
4889;SDS011;2459;42.268;23.112;2023-05-07T00:51:44;12.83;;;6.43;;
4889;SDS011;2459;42.268;23.112;2023-05-07T00:54:11;8.60;;;5.73;;
4889;SDS011;2459;42.268;23.112;2023-05-07T00:56:37;10.17;;;6.20;;
4889;SDS011;2459;42.268;23.112;2023-05-07T00:59:04;9.30;;;6.27;;
4889;SDS011;2459;42.268;23.112;2023-05-07T01:01:31;12.80;;;6.67;;
4889;SDS011;2459;42.268;23.112;2023-05-07T01:03:58;12.30;;;6.47;;
4889;SDS011;2459;42.268;23.112;2023-05-07T01:06:26;9.27;;;6.20;;
4889;SDS011;2459;42.268;23.112;2023-05-07T01:08:53;7.20;;;5.63;;
4889;SDS011;2459;42.268;23.112;2023-05-07T01:11:21;10.63;;;5.93;;
4889;SDS011;2459;42.268;23.112;2023-05-07T01:13:48;12.20;;;5.20;;
4889;SDS011;2459;42.268;23.112;2023-05-07T01:16:18;10.90;;;6.40;;
4889;SDS011;2459;42.268;23.112;2023-05-07T01:18:45;10.63;;;6.03;;
4889;SDS011;2459;42.268;23.112;2023-05-07T01:21:13;12.90;;;5.70;;
4889;SDS011;2459;42.268;23.112;2023-05-07T01:23:43;10.93;;;6.63;;
4889;SDS011;2459;42.268;23.112;2023-05-07T01:26:10;10.30;;;5.67;;
4889;SDS011;2459;42.268;23.112;2023-05-07T01:28:36;11.43;;;6.23;;
4889;SDS011;2459;42.268;23.112;2023-05-07T01:31:03;9.67;;;5.73;;
4889;SDS011;2459;42.268;23.112;2023-05-07T01:33:31;10.40;;;6.67;;
4889;SDS011;2459;42.268;23.112;2023-05-07T01:35:59;12.93;;;6.20;;
4889;SDS011;2459;42.268;23.112;2023-05-07T01:38:28;8.90;;;7.10;;
4889;SDS011;2459;42.268;23.112;2023-05-07T01:40:57;11.03;;;5.60;;
4889;SDS011;2459;42.268;23.112;2023-05-07T01:43:23;18.00;;;7.00;;
4889;SDS011;2459;42.268;23.112;2023-05-07T01:45:50;9.60;;;5.53;;
4889;SDS011;2459;42.268;23.112;2023-05-07T01:48:17;10.07;;;6.47;;
4889;SDS011;2459;42.268;23.112;2023-05-07T01:50:44;17.43;;;6.97;;
4889;SDS011;2459;42.268;23.112;2023-05-07T01:53:11;8.77;;;6.23;;
4889;SDS011;2459;42.268;23.112;2023-05-07T01:55:37;11.00;;;5.40;;
4889;SDS011;2459;42.268;23.112;2023-05-07T01:58:06;11.43;;;6.40;;
4889;SDS011;2459;42.268;23.112;2023-05-07T02:00:33;17.73;;;7.60;;
4889;SDS011;2459;42.268;23.112;2023-05-07T02:02:59;8.27;;;6.10;;
4889;SDS011;2459;42.268;23.112;2023-05-07T02:05:26;9.00;;;7.13;;
4889;SDS011;2459;42.268;23.112;2023-05-07T02:07:52;11.57;;;5.47;;
4889;SDS011;2459;42.268;23.112;2023-05-07T02:10:19;8.87;;;6.73;;
4889;SDS011;2459;42.268;23.112;2023-05-07T02:12:45;12.57;;;7.20;;
4889;SDS011;2459;42.268;23.112;2023-05-07T02:15:13;10.60;;;7.50;;
4889;SDS011;2459;42.268;23.112;2023-05-07T02:17:58;7.53;;;5.23;;
4889;SDS011;2459;42.268;23.112;2023-05-07T02:20:26;10.33;;;5.70;;
4889;SDS011;2459;42.268;23.112;2023-05-07T02:22:52;11.93;;;6.77;;
4889;SDS011;2459;42.268;23.112;2023-05-07T02:25:19;10.60;;;7.00;;
4889;SDS011;2459;42.268;23.112;2023-05-07T02:27:45;11.50;;;7.47;;
4889;SDS011;2459;42.268;23.112;2023-05-07T02:30:13;14.43;;;7.50;;
4889;SDS011;2459;42.268;23.112;2023-05-07T02:32:40;12.30;;;7.00;;
4889;SDS011;2459;42.268;23.112;2023-05-07T02:35:07;9.10;;;6.20;;
4889;SDS011;2459;42.268;23.112;2023-05-07T02:37:33;9.33;;;7.30;;
4889;SDS011;2459;42.268;23.112;2023-05-07T02:40:00;14.33;;;6.93;;
4889;SDS011;2459;42.268;23.112;2023-05-07T02:42:26;13.10;;;7.43;;
4889;SDS011;2459;42.268;23.112;2023-05-07T02:44:53;18.37;;;6.90;;
4889;SDS011;2459;42.268;23.112;2023-05-07T02:47:20;22.40;;;7.87;;
4889;SDS011;2459;42.268;23.112;2023-05-07T02:49:47;16.43;;;8.00;;
4889;SDS011;2459;42.268;23.112;2023-05-07T02:52:16;11.30;;;7.83;;
4889;SDS011;2459;42.268;23.112;2023-05-07T02:54:43;9.00;;;5.90;;
4889;SDS011;2459;42.268;23.112;2023-05-07T02:57:09;11.27;;;6.30;;
4889;SDS011;2459;42.268;23.112;2023-05-07T02:59:36;7.27;;;5.40;;
4889;SDS011;2459;42.268;23.112;2023-05-07T03:02:03;10.40;;;5.63;;
4889;SDS011;2459;42.268;23.112;2023-05-07T03:04:30;12.77;;;7.50;;
4889;SDS011;2459;42.268;23.112;2023-05-07T03:06:57;14.60;;;8.23;;
4889;SDS011;2459;42.268;23.112;2023-05-07T03:09:23;16.80;;;7.57;;
4889;SDS011;2459;42.268;23.112;2023-05-07T03:11:50;15.50;;;7.93;;
4889;SDS011;2459;42.268;23.112;2023-05-07T03:14:17;11.17;;;7.17;;
4889;SDS011;2459;42.268;23.112;2023-05-07T03:16:44;12.97;;;8.33;;
4889;SDS011;2459;42.268;23.112;2023-05-07T03:19:10;12.50;;;7.90;;
4889;SDS011;2459;42.268;23.112;2023-05-07T03:21:38;8.13;;;6.07;;
4889;SDS011;2459;42.268;23.112;2023-05-07T03:24:05;11.00;;;6.77;;
4889;SDS011;2459;42.268;23.112;2023-05-07T03:26:31;12.50;;;7.80;;
4889;SDS011;2459;42.268;23.112;2023-05-07T03:28:58;8.13;;;6.50;;
4889;SDS011;2459;42.268;23.112;2023-05-07T03:31:25;10.90;;;7.30;;
4889;SDS011;2459;42.268;23.112;2023-05-07T03:33:51;10.13;;;6.57;;
4889;SDS011;2459;42.268;23.112;2023-05-07T03:36:18;13.83;;;8.30;;
4889;SDS011;2459;42.268;23.112;2023-05-07T03:38:46;10.43;;;7.20;;
4889;SDS011;2459;42.268;23.112;2023-05-07T03:41:13;9.67;;;6.70;;
4889;SDS011;2459;42.268;23.112;2023-05-07T03:43:39;12.20;;;7.07;;
4889;SDS011;2459;42.268;23.112;2023-05-07T03:46:06;8.33;;;7.20;;
4889;SDS011;2459;42.268;23.112;2023-05-07T03:48:32;16.77;;;8.33;;
4889;SDS011;2459;42.268;23.112;2023-05-07T03:50:59;11.57;;;7.77;;
4889;SDS011;2459;42.268;23.112;2023-05-07T03:53:25;10.40;;;7.30;;
4889;SDS011;2459;42.268;23.112;2023-05-07T03:55:53;14.97;;;8.73;;
4889;SDS011;2459;42.268;23.112;2023-05-07T03:58:20;14.27;;;8.97;;
4889;SDS011;2459;42.268;23.112;2023-05-07T04:00:46;19.90;;;9.47;;
4889;SDS011;2459;42.268;23.112;2023-05-07T04:03:13;17.33;;;8.43;;
4889;SDS011;2459;42.268;23.112;2023-05-07T04:05:40;13.23;;;7.43;;
4889;SDS011;2459;42.268;23.112;2023-05-07T04:08:06;12.80;;;7.10;;
4889;SDS011;2459;42.268;23.112;2023-05-07T04:10:33;9.50;;;7.10;;
4889;SDS011;2459;42.268;23.112;2023-05-07T04:13:01;10.80;;;7.80;;
4889;SDS011;2459;42.268;23.112;2023-05-07T04:15:38;15.83;;;7.00;;
4889;SDS011;2459;42.268;23.112;2023-05-07T04:18:04;9.87;;;6.03;;
4889;SDS011;2459;42.268;23.112;2023-05-07T04:20:33;10.07;;;6.07;;
4889;SDS011;2459;42.268;23.112;2023-05-07T04:23:01;10.20;;;6.40;;
4889;SDS011;2459;42.268;23.112;2023-05-07T04:25:27;7.83;;;6.60;;
4889;SDS011;2459;42.268;23.112;2023-05-07T04:27:54;11.83;;;5.80;;
4889;SDS011;2459;42.268;23.112;2023-05-07T04:30:22;13.33;;;5.77;;
4889;SDS011;2459;42.268;23.112;2023-05-07T04:32:48;9.30;;;6.07;;
4889;SDS011;2459;42.268;23.112;2023-05-07T04:35:15;6.83;;;5.40;;
4889;SDS011;2459;42.268;23.112;2023-05-07T04:37:42;12.43;;;6.20;;
4889;SDS011;2459;42.268;23.112;2023-05-07T04:40:09;9.70;;;5.40;;
4889;SDS011;2459;42.268;23.112;2023-05-07T04:42:35;11.23;;;6.43;;
4889;SDS011;2459;42.268;23.112;2023-05-07T04:45:02;8.03;;;5.73;;
4889;SDS011;2459;42.268;23.112;2023-05-07T04:47:31;11.40;;;6.63;;
4889;SDS011;2459;42.268;23.112;2023-05-07T04:49:58;7.97;;;5.77;;
4889;SDS011;2459;42.268;23.112;2023-05-07T04:52:24;9.10;;;6.17;;
4889;SDS011;2459;42.268;23.112;2023-05-07T04:54:51;6.33;;;5.50;;
4889;SDS011;2459;42.268;23.112;2023-05-07T04:57:18;15.70;;;5.67;;
4889;SDS011;2459;42.268;23.112;2023-05-07T04:59:44;10.57;;;6.93;;
4889;SDS011;2459;42.268;23.112;2023-05-07T05:02:11;13.13;;;7.20;;
4889;SDS011;2459;42.268;23.112;2023-05-07T05:04:39;13.43;;;5.67;;
4889;SDS011;2459;42.268;23.112;2023-05-07T05:07:08;11.90;;;6.93;;
4889;SDS011;2459;42.268;23.112;2023-05-07T05:09:35;8.33;;;6.17;;
4889;SDS011;2459;42.268;23.112;2023-05-07T05:12:04;22.33;;;6.90;;
4889;SDS011;2459;42.268;23.112;2023-05-07T05:14:32;13.10;;;7.37;;
4889;SDS011;2459;42.268;23.112;2023-05-07T05:16:58;8.50;;;6.03;;
4889;SDS011;2459;42.268;23.112;2023-05-07T05:19:25;9.50;;;5.87;;
4889;SDS011;2459;42.268;23.112;2023-05-07T05:21:53;15.17;;;7.77;;
4889;SDS011;2459;42.268;23.112;2023-05-07T05:24:20;18.00;;;7.60;;
4889;SDS011;2459;42.268;23.112;2023-05-07T05:26:46;13.60;;;7.57;;
4889;SDS011;2459;42.268;23.112;2023-05-07T05:29:13;10.43;;;5.80;;
4889;SDS011;2459;42.268;23.112;2023-05-07T05:31:39;10.70;;;6.77;;
4889;SDS011;2459;42.268;23.112;2023-05-07T05:34:06;13.83;;;7.20;;
4889;SDS011;2459;42.268;23.112;2023-05-07T05:36:33;7.27;;;5.37;;
4889;SDS011;2459;42.268;23.112;2023-05-07T05:39:01;19.70;;;6.13;;
4889;SDS011;2459;42.268;23.112;2023-05-07T05:41:27;11.70;;;6.47;;
4889;SDS011;2459;42.268;23.112;2023-05-07T05:43:54;11.93;;;7.43;;
4889;SDS011;2459;42.268;23.112;2023-05-07T05:46:21;11.63;;;5.50;;
4889;SDS011;2459;42.268;23.112;2023-05-07T05:48:47;7.80;;;5.93;;
4889;SDS011;2459;42.268;23.112;2023-05-07T05:51:14;13.43;;;5.20;;
4889;SDS011;2459;42.268;23.112;2023-05-07T05:53:40;8.10;;;5.70;;
4889;SDS011;2459;42.268;23.112;2023-05-07T05:56:08;12.17;;;5.47;;
4889;SDS011;2459;42.268;23.112;2023-05-07T05:58:35;9.00;;;4.40;;
4889;SDS011;2459;42.268;23.112;2023-05-07T06:01:01;14.60;;;6.37;;
4889;SDS011;2459;42.268;23.112;2023-05-07T06:03:28;8.07;;;5.40;;
4889;SDS011;2459;42.268;23.112;2023-05-07T06:05:55;11.80;;;5.10;;
4889;SDS011;2459;42.268;23.112;2023-05-07T06:08:21;11.10;;;6.30;;
4889;SDS011;2459;42.268;23.112;2023-05-07T06:10:48;12.43;;;4.70;;
4889;SDS011;2459;42.268;23.112;2023-05-07T06:13:16;12.93;;;5.00;;
4889;SDS011;2459;42.268;23.112;2023-05-07T06:15:42;9.60;;;5.67;;
4889;SDS011;2459;42.268;23.112;2023-05-07T06:18:09;7.77;;;5.27;;
4889;SDS011;2459;42.268;23.112;2023-05-07T06:20:36;6.20;;;4.87;;
4889;SDS011;2459;42.268;23.112;2023-05-07T06:23:02;6.60;;;4.63;;
4889;SDS011;2459;42.268;23.112;2023-05-07T06:25:29;8.60;;;5.73;;
4889;SDS011;2459;42.268;23.112;2023-05-07T06:27:55;10.90;;;5.13;;
4889;SDS011;2459;42.268;23.112;2023-05-07T06:30:23;7.70;;;4.53;;
4889;SDS011;2459;42.268;23.112;2023-05-07T06:32:50;14.47;;;5.57;;
4889;SDS011;2459;42.268;23.112;2023-05-07T06:35:17;7.33;;;5.00;;
4889;SDS011;2459;42.268;23.112;2023-05-07T06:37:44;9.47;;;4.90;;
4889;SDS011;2459;42.268;23.112;2023-05-07T06:40:11;10.30;;;6.63;;
4889;SDS011;2459;42.268;23.112;2023-05-07T06:42:37;7.50;;;5.67;;
4889;SDS011;2459;42.268;23.112;2023-05-07T06:45:04;7.47;;;5.57;;
4889;SDS011;2459;42.268;23.112;2023-05-07T06:47:32;14.77;;;5.17;;
4889;SDS011;2459;42.268;23.112;2023-05-07T06:49:58;8.07;;;4.37;;
4889;SDS011;2459;42.268;23.112;2023-05-07T06:52:25;10.00;;;4.47;;
4889;SDS011;2459;42.268;23.112;2023-05-07T06:54:52;12.00;;;4.47;;
4889;SDS011;2459;42.268;23.112;2023-05-07T06:57:19;5.30;;;3.87;;
4889;SDS011;2459;42.268;23.112;2023-05-07T06:59:46;7.93;;;3.90;;
4889;SDS011;2459;42.268;23.112;2023-05-07T07:02:12;7.43;;;4.83;;
4889;SDS011;2459;42.268;23.112;2023-05-07T07:04:40;10.83;;;5.20;;
4889;SDS011;2459;42.268;23.112;2023-05-07T07:07:07;7.20;;;3.83;;
4889;SDS011;2459;42.268;23.112;2023-05-07T07:09:33;8.90;;;4.30;;
4889;SDS011;2459;42.268;23.112;2023-05-07T07:12:00;6.90;;;3.53;;
4889;SDS011;2459;42.268;23.112;2023-05-07T07:14:27;6.30;;;4.00;;
4889;SDS011;2459;42.268;23.112;2023-05-07T07:16:54;7.33;;;4.43;;
4889;SDS011;2459;42.268;23.112;2023-05-07T07:19:20;5.63;;;4.83;;
4889;SDS011;2459;42.268;23.112;2023-05-07T07:21:48;16.58;;;4.13;;
4889;SDS011;2459;42.268;23.112;2023-05-07T07:24:15;5.97;;;4.47;;
4889;SDS011;2459;42.268;23.112;2023-05-07T07:26:46;10.82;;;5.32;;
4889;SDS011;2459;42.268;23.112;2023-05-07T07:29:12;11.48;;;4.80;;
4889;SDS011;2459;42.268;23.112;2023-05-07T07:31:39;9.25;;;4.82;;
4889;SDS011;2459;42.268;23.112;2023-05-07T07:34:05;6.15;;;4.43;;
4889;SDS011;2459;42.268;23.112;2023-05-07T07:36:32;10.35;;;4.40;;
4889;SDS011;2459;42.268;23.112;2023-05-07T07:39:00;8.45;;;4.68;;
4889;SDS011;2459;42.268;23.112;2023-05-07T07:41:27;9.45;;;4.50;;
4889;SDS011;2459;42.268;23.112;2023-05-07T07:43:53;11.27;;;5.15;;
4889;SDS011;2459;42.268;23.112;2023-05-07T07:46:20;13.80;;;4.72;;
4889;SDS011;2459;42.268;23.112;2023-05-07T07:48:46;13.43;;;5.63;;
4889;SDS011;2459;42.268;23.112;2023-05-07T07:51:13;6.22;;;4.63;;
4889;SDS011;2459;42.268;23.112;2023-05-07T07:53:39;19.27;;;5.82;;
4889;SDS011;2459;42.268;23.112;2023-05-07T07:56:07;7.32;;;4.93;;
4889;SDS011;2459;42.268;23.112;2023-05-07T07:58:34;9.55;;;4.38;;
4889;SDS011;2459;42.268;23.112;2023-05-07T08:01:03;11.48;;;4.72;;
4889;SDS011;2459;42.268;23.112;2023-05-07T08:03:29;15.38;;;4.32;;
4889;SDS011;2459;42.268;23.112;2023-05-07T08:05:57;16.48;;;5.10;;
4889;SDS011;2459;42.268;23.112;2023-05-07T08:08:24;7.28;;;4.53;;
4889;SDS011;2459;42.268;23.112;2023-05-07T08:10:50;10.40;;;5.20;;
4889;SDS011;2459;42.268;23.112;2023-05-07T08:13:19;6.38;;;4.25;;
4889;SDS011;2459;42.268;23.112;2023-05-07T08:15:46;7.05;;;3.53;;
4889;SDS011;2459;42.268;23.112;2023-05-07T08:18:12;11.88;;;4.43;;
4889;SDS011;2459;42.268;23.112;2023-05-07T08:20:39;6.00;;;3.80;;
4889;SDS011;2459;42.268;23.112;2023-05-07T08:23:09;5.78;;;3.38;;
4889;SDS011;2459;42.268;23.112;2023-05-07T08:25:35;4.35;;;3.15;;
4889;SDS011;2459;42.268;23.112;2023-05-07T08:28:02;5.22;;;3.47;;
4889;SDS011;2459;42.268;23.112;2023-05-07T08:30:30;6.80;;;4.22;;
4889;SDS011;2459;42.268;23.112;2023-05-07T08:32:57;3.50;;;3.08;;
4889;SDS011;2459;42.268;23.112;2023-05-07T08:35:23;4.78;;;3.58;;
4889;SDS011;2459;42.268;23.112;2023-05-07T08:37:50;6.70;;;3.60;;
4889;SDS011;2459;42.268;23.112;2023-05-07T08:40:17;9.25;;;3.45;;
4889;SDS011;2459;42.268;23.112;2023-05-07T08:42:43;4.95;;;3.15;;
4889;SDS011;2459;42.268;23.112;2023-05-07T08:45:10;4.90;;;2.92;;
4889;SDS011;2459;42.268;23.112;2023-05-07T08:47:42;6.40;;;2.97;;
4889;SDS011;2459;42.268;23.112;2023-05-07T08:50:10;4.10;;;3.38;;
4889;SDS011;2459;42.268;23.112;2023-05-07T08:52:36;6.70;;;4.15;;
4889;SDS011;2459;42.268;23.112;2023-05-07T08:55:03;13.55;;;3.67;;
4889;SDS011;2459;42.268;23.112;2023-05-07T08:57:30;5.20;;;3.22;;
4889;SDS011;2459;42.268;23.112;2023-05-07T08:59:56;10.20;;;3.38;;
4889;SDS011;2459;42.268;23.112;2023-05-07T09:02:23;3.83;;;3.00;;
4889;SDS011;2459;42.268;23.112;2023-05-07T09:04:51;2.80;;;2.60;;
4889;SDS011;2459;42.268;23.112;2023-05-07T09:07:18;6.85;;;4.00;;
4889;SDS011;2459;42.268;23.112;2023-05-07T09:09:45;4.88;;;3.10;;
4889;SDS011;2459;42.268;23.112;2023-05-07T09:12:12;7.60;;;3.47;;
4889;SDS011;2459;42.268;23.112;2023-05-07T09:14:39;8.93;;;3.90;;
4889;SDS011;2459;42.268;23.112;2023-05-07T09:17:05;4.05;;;2.97;;
4889;SDS011;2459;42.268;23.112;2023-05-07T09:19:32;3.75;;;2.60;;
4889;SDS011;2459;42.268;23.112;2023-05-07T09:22:00;3.67;;;2.47;;
4889;SDS011;2459;42.268;23.112;2023-05-07T09:24:27;3.65;;;2.30;;
4889;SDS011;2459;42.268;23.112;2023-05-07T09:26:58;3.95;;;3.30;;
4889;SDS011;2459;42.268;23.112;2023-05-07T09:29:25;3.83;;;3.20;;
4889;SDS011;2459;42.268;23.112;2023-05-07T09:31:53;9.52;;;2.70;;
4889;SDS011;2459;42.268;23.112;2023-05-07T09:34:20;4.03;;;3.25;;
4889;SDS011;2459;42.268;23.112;2023-05-07T09:36:47;10.45;;;3.85;;
4889;SDS011;2459;42.268;23.112;2023-05-07T09:39:15;13.50;;;3.70;;
4889;SDS011;2459;42.268;23.112;2023-05-07T09:41:44;9.70;;;3.72;;
4889;SDS011;2459;42.268;23.112;2023-05-07T09:44:11;7.97;;;3.00;;
4889;SDS011;2459;42.268;23.112;2023-05-07T09:46:38;6.47;;;2.65;;
4889;SDS011;2459;42.268;23.112;2023-05-07T09:49:04;6.95;;;3.30;;
4889;SDS011;2459;42.268;23.112;2023-05-07T09:51:37;2.33;;;2.13;;
4889;SDS011;2459;42.268;23.112;2023-05-07T09:54:05;2.28;;;2.13;;
4889;SDS011;2459;42.268;23.112;2023-05-07T09:56:34;3.15;;;2.85;;
4889;SDS011;2459;42.268;23.112;2023-05-07T09:59:03;3.40;;;2.30;;
4889;SDS011;2459;42.268;23.112;2023-05-07T10:01:30;3.38;;;2.38;;
4889;SDS011;2459;42.268;23.112;2023-05-07T10:03:57;5.43;;;2.40;;
4889;SDS011;2459;42.268;23.112;2023-05-07T10:06:24;4.55;;;3.30;;
4889;SDS011;2459;42.268;23.112;2023-05-07T10:08:51;10.57;;;2.72;;
4889;SDS011;2459;42.268;23.112;2023-05-07T10:11:17;4.65;;;2.90;;
4889;SDS011;2459;42.268;23.112;2023-05-07T10:13:45;3.45;;;2.70;;
4889;SDS011;2459;42.268;23.112;2023-05-07T10:16:12;6.25;;;2.50;;
4889;SDS011;2459;42.268;23.112;2023-05-07T10:18:39;5.13;;;4.22;;
4889;SDS011;2459;42.268;23.112;2023-05-07T10:21:07;7.13;;;3.20;;
4889;SDS011;2459;42.268;23.112;2023-05-07T10:23:35;4.30;;;2.70;;
4889;SDS011;2459;42.268;23.112;2023-05-07T10:26:02;9.48;;;2.97;;
4889;SDS011;2459;42.268;23.112;2023-05-07T10:28:30;4.13;;;2.13;;
4889;SDS011;2459;42.268;23.112;2023-05-07T10:31:03;10.77;;;3.38;;
4889;SDS011;2459;42.268;23.112;2023-05-07T10:33:34;6.03;;;3.15;;
4889;SDS011;2459;42.268;23.112;2023-05-07T10:36:01;10.20;;;3.50;;
4889;SDS011;2459;42.268;23.112;2023-05-07T10:38:29;3.33;;;2.58;;
4889;SDS011;2459;42.268;23.112;2023-05-07T10:40:56;2.92;;;2.70;;
4889;SDS011;2459;42.268;23.112;2023-05-07T10:43:23;6.65;;;3.42;;
4889;SDS011;2459;42.268;23.112;2023-05-07T10:48:32;8.70;;;2.33;;
4889;SDS011;2459;42.268;23.112;2023-05-07T10:51:19;3.20;;;2.00;;
4889;SDS011;2459;42.268;23.112;2023-05-07T10:53:48;2.35;;;2.25;;
4889;SDS011;2459;42.268;23.112;2023-05-07T10:56:35;3.38;;;2.58;;
4889;SDS011;2459;42.268;23.112;2023-05-07T11:01:54;2.78;;;2.10;;
4889;SDS011;2459;42.268;23.112;2023-05-07T11:04:22;2.45;;;2.25;;
4889;SDS011;2459;42.268;23.112;2023-05-07T11:09:59;2.30;;;2.10;;
4889;SDS011;2459;42.268;23.112;2023-05-07T11:15:14;2.33;;;2.20;;
4889;SDS011;2459;42.268;23.112;2023-05-07T11:17:52;4.38;;;2.70;;
4889;SDS011;2459;42.268;23.112;2023-05-07T11:20:20;2.65;;;2.35;;
4889;SDS011;2459;42.268;23.112;2023-05-07T11:22:47;5.50;;;2.80;;
4889;SDS011;2459;42.268;23.112;2023-05-07T11:25:17;5.47;;;2.47;;
4889;SDS011;2459;42.268;23.112;2023-05-07T11:27:44;2.42;;;2.20;;
4889;SDS011;2459;42.268;23.112;2023-05-07T11:30:11;1.98;;;1.88;;
4889;SDS011;2459;42.268;23.112;2023-05-07T11:32:42;3.20;;;2.38;;
4889;SDS011;2459;42.268;23.112;2023-05-07T11:35:09;2.63;;;1.90;;
4889;SDS011;2459;42.268;23.112;2023-05-07T11:37:37;4.15;;;2.42;;
4889;SDS011;2459;42.268;23.112;2023-05-07T11:40:05;3.67;;;2.10;;
4889;SDS011;2459;42.268;23.112;2023-05-07T11:42:33;2.33;;;2.22;;
4889;SDS011;2459;42.268;23.112;2023-05-07T11:45:00;2.90;;;2.80;;
4889;SDS011;2459;42.268;23.112;2023-05-07T11:47:29;2.40;;;2.30;;
4889;SDS011;2459;42.268;23.112;2023-05-07T11:49:56;6.32;;;2.97;;
4889;SDS011;2459;42.268;23.112;2023-05-07T11:52:23;3.30;;;3.00;;
4889;SDS011;2459;42.268;23.112;2023-05-07T11:54:51;6.07;;;3.33;;
4889;SDS011;2459;42.268;23.112;2023-05-07T11:57:19;3.83;;;3.53;;
4889;SDS011;2459;42.268;23.112;2023-05-07T11:59:46;8.38;;;3.55;;
4889;SDS011;2459;42.268;23.112;2023-05-07T12:02:13;18.42;;;3.22;;
4889;SDS011;2459;42.268;23.112;2023-05-07T12:04:40;8.63;;;3.40;;
4889;SDS011;2459;42.268;23.112;2023-05-07T12:07:10;4.30;;;3.17;;
4889;SDS011;2459;42.268;23.112;2023-05-07T12:09:37;4.35;;;3.08;;
4889;SDS011;2459;42.268;23.112;2023-05-07T12:12:05;2.70;;;2.50;;
4889;SDS011;2459;42.268;23.112;2023-05-07T12:14:32;3.85;;;2.50;;
4889;SDS011;2459;42.268;23.112;2023-05-07T12:16:59;3.37;;;3.07;;
4889;SDS011;2459;42.268;23.112;2023-05-07T12:19:28;5.80;;;2.90;;
4889;SDS011;2459;42.268;23.112;2023-05-07T12:21:54;2.60;;;2.40;;
4889;SDS011;2459;42.268;23.112;2023-05-07T12:24:21;8.00;;;3.40;;
4889;SDS011;2459;42.268;23.112;2023-05-07T12:26:48;15.63;;;2.97;;
4889;SDS011;2459;42.268;23.112;2023-05-07T12:29:16;4.40;;;3.07;;
4889;SDS011;2459;42.268;23.112;2023-05-07T12:31:45;4.60;;;3.10;;
4889;SDS011;2459;42.268;23.112;2023-05-07T12:34:12;8.90;;;3.33;;
4889;SDS011;2459;42.268;23.112;2023-05-07T12:36:39;2.90;;;2.70;;
4889;SDS011;2459;42.268;23.112;2023-05-07T12:39:06;5.37;;;2.77;;
4889;SDS011;2459;42.268;23.112;2023-05-07T12:41:35;9.53;;;3.07;;
4889;SDS011;2459;42.268;23.112;2023-05-07T12:44:03;5.40;;;2.30;;
4889;SDS011;2459;42.268;23.112;2023-05-07T12:46:31;5.20;;;2.80;;
4889;SDS011;2459;42.268;23.112;2023-05-07T12:48:58;3.23;;;2.93;;
4889;SDS011;2459;42.268;23.112;2023-05-07T12:51:25;5.50;;;2.80;;
4889;SDS011;2459;42.268;23.112;2023-05-07T12:53:51;6.23;;;2.23;;
4889;SDS011;2459;42.268;23.112;2023-05-07T12:56:22;5.50;;;2.50;;
4889;SDS011;2459;42.268;23.112;2023-05-07T12:58:49;3.03;;;2.73;;
4889;SDS011;2459;42.268;23.112;2023-05-07T13:01:15;4.13;;;3.73;;
4889;SDS011;2459;42.268;23.112;2023-05-07T13:03:47;3.40;;;2.80;;
4889;SDS011;2459;42.268;23.112;2023-05-07T13:06:15;3.53;;;3.23;;
4889;SDS011;2459;42.268;23.112;2023-05-07T13:08:41;4.40;;;2.73;;
4889;SDS011;2459;42.268;23.112;2023-05-07T13:11:09;4.47;;;3.47;;
4889;SDS011;2459;42.268;23.112;2023-05-07T13:13:36;4.20;;;3.07;;
4889;SDS011;2459;42.268;23.112;2023-05-07T13:16:03;4.83;;;3.40;;
4889;SDS011;2459;42.268;23.112;2023-05-07T13:18:30;4.83;;;3.30;;
4889;SDS011;2459;42.268;23.112;2023-05-07T13:20:58;10.97;;;3.27;;
4889;SDS011;2459;42.268;23.112;2023-05-07T13:23:25;5.50;;;3.37;;
4889;SDS011;2459;42.268;23.112;2023-05-07T13:25:52;4.23;;;3.10;;
4889;SDS011;2459;42.268;23.112;2023-05-07T13:28:19;6.83;;;3.70;;
4889;SDS011;2459;42.268;23.112;2023-05-07T13:30:45;4.70;;;3.60;;
4889;SDS011;2459;42.268;23.112;2023-05-07T13:33:12;7.60;;;4.40;;
4889;SDS011;2459;42.268;23.112;2023-05-07T13:35:39;3.23;;;2.93;;
4889;SDS011;2459;42.268;23.112;2023-05-07T13:38:07;2.67;;;2.47;;
4889;SDS011;2459;42.268;23.112;2023-05-07T13:40:33;3.70;;;3.40;;
4889;SDS011;2459;42.268;23.112;2023-05-07T13:43:00;6.00;;;2.90;;
4889;SDS011;2459;42.268;23.112;2023-05-07T13:45:27;4.40;;;3.80;;
4889;SDS011;2459;42.268;23.112;2023-05-07T13:47:54;5.13;;;3.97;;
4889;SDS011;2459;42.268;23.112;2023-05-07T13:50:21;15.77;;;4.63;;
4889;SDS011;2459;42.268;23.112;2023-05-07T13:52:51;10.23;;;3.03;;
4889;SDS011;2459;42.268;23.112;2023-05-07T13:55:19;5.70;;;3.50;;
4889;SDS011;2459;42.268;23.112;2023-05-07T13:57:46;6.10;;;2.93;;
4889;SDS011;2459;42.268;23.112;2023-05-07T14:00:13;8.63;;;3.10;;
4889;SDS011;2459;42.268;23.112;2023-05-07T14:02:41;14.47;;;3.77;;
4889;SDS011;2459;42.268;23.112;2023-05-07T14:05:08;7.40;;;3.93;;
4889;SDS011;2459;42.268;23.112;2023-05-07T14:07:35;7.57;;;3.30;;
4889;SDS011;2459;42.268;23.112;2023-05-07T14:10:02;9.43;;;3.70;;
4889;SDS011;2459;42.268;23.112;2023-05-07T14:12:29;5.37;;;3.30;;
4889;SDS011;2459;42.268;23.112;2023-05-07T14:14:56;3.70;;;3.20;;
4889;SDS011;2459;42.268;23.112;2023-05-07T14:17:23;4.03;;;3.10;;
4889;SDS011;2459;42.268;23.112;2023-05-07T14:19:51;8.57;;;3.70;;
4889;SDS011;2459;42.268;23.112;2023-05-07T14:22:19;7.97;;;3.93;;
4889;SDS011;2459;42.268;23.112;2023-05-07T14:24:45;5.37;;;3.70;;
4889;SDS011;2459;42.268;23.112;2023-05-07T14:27:12;5.13;;;3.50;;
4889;SDS011;2459;42.268;23.112;2023-05-07T14:29:40;10.40;;;3.87;;
4889;SDS011;2459;42.268;23.112;2023-05-07T14:32:08;7.43;;;3.90;;
4889;SDS011;2459;42.268;23.112;2023-05-07T14:34:34;13.50;;;4.80;;
4889;SDS011;2459;42.268;23.112;2023-05-07T14:37:01;6.50;;;3.80;;
4889;SDS011;2459;42.268;23.112;2023-05-07T14:39:27;8.63;;;2.92;;
4889;SDS011;2459;42.268;23.112;2023-05-07T14:41:54;15.48;;;3.58;;
4889;SDS011;2459;42.268;23.112;2023-05-07T14:44:21;8.37;;;3.90;;
4889;SDS011;2459;42.268;23.112;2023-05-07T14:46:49;3.58;;;2.92;;
4889;SDS011;2459;42.268;23.112;2023-05-07T14:49:17;3.90;;;3.28;;
4889;SDS011;2459;42.268;23.112;2023-05-07T14:51:44;3.65;;;3.33;;
4889;SDS011;2459;42.268;23.112;2023-05-07T14:54:11;5.93;;;3.40;;
4889;SDS011;2459;42.268;23.112;2023-05-07T14:56:37;8.37;;;3.63;;
4889;SDS011;2459;42.268;23.112;2023-05-07T14:59:06;13.30;;;4.67;;
4889;SDS011;2459;42.268;23.112;2023-05-07T15:01:34;12.73;;;5.00;;
4889;SDS011;2459;42.268;23.112;2023-05-07T15:04:02;12.13;;;3.40;;
4889;SDS011;2459;42.268;23.112;2023-05-07T15:06:28;12.50;;;4.20;;